Time;durP1;ratioP1;P1;durP2;ratioP2;P2;SDS_P1;SDS_P2;PMS_P1;PMS_P2;Temp;Humidity;BMP_temperature;BMP_pressure;BME280_temperature;BME280_humidity;BME280_pressure;Samples;Min_cycle;Max_cycle;Signal;HPM_P1;HPM_P2
2021/10/10 00:01:59;;;;;;;30.00;18.55;;;;;;;7.13;100.00;101247.22;5053101;28;20045;-68
2021/10/10 00:04:26;;;;;;;28.67;17.95;;;;;;;7.07;100.00;101253.56;5056676;28;20037;-69
2021/10/10 00:06:52;;;;;;;28.58;17.90;;;;;;;7.13;100.00;101248.06;5056665;28;20345;-68
2021/10/10 00:09:19;;;;;;;28.95;18.73;;;;;;;7.14;99.79;101255.13;5056653;28;20037;-69
2021/10/10 00:11:46;;;;;;;25.23;17.98;;;;;;;7.04;100.00;101243.03;5055458;28;20056;-68
2021/10/10 00:14:13;;;;;;;26.73;18.48;;;;;;;7.11;100.00;101255.22;5056448;28;20048;-68
2021/10/10 00:16:39;;;;;;;29.10;18.33;;;;;;;7.09;100.00;101250.88;5056386;28;20045;-68
2021/10/10 00:19:06;;;;;;;27.83;18.85;;;;;;;7.05;100.00;101252.75;5056253;28;20433;-68
2021/10/10 00:21:33;;;;;;;26.52;17.75;;;;;;;7.02;100.00;101248.38;5056454;28;20052;-68
2021/10/10 00:24:00;;;;;;;35.60;18.55;;;;;;;6.91;100.00;101245.16;5056250;28;20033;-67
2021/10/10 00:26:27;;;;;;;29.02;18.67;;;;;;;6.88;100.00;101243.50;5055250;28;20041;-68
2021/10/10 00:28:53;;;;;;;27.77;18.58;;;;;;;6.91;100.00;101248.69;5054176;28;20430;-68
2021/10/10 00:31:21;;;;;;;24.15;17.45;;;;;;;6.87;100.00;101249.69;5055197;28;20342;-68
2021/10/10 00:33:47;;;;;;;30.67;18.48;;;;;;;6.86;100.00;101255.06;5038424;28;20052;-68
2021/10/10 00:36:14;;;;;;;27.08;17.80;;;;;;;6.81;100.00;101246.34;5056050;28;20052;-68
2021/10/10 00:38:42;;;;;;;26.25;17.25;;;;;;;6.82;100.00;101254.28;5056025;28;20037;-68
2021/10/10 00:41:09;;;;;;;25.40;17.67;;;;;;;6.75;100.00;101252.69;5055933;28;20457;-68
2021/10/10 00:43:35;;;;;;;26.02;17.20;;;;;;;6.75;100.00;101247.41;5054688;28;20057;-68
2021/10/10 00:46:02;;;;;;;28.05;16.63;;;;;;;6.72;100.00;101248.34;5038283;28;20389;-68
2021/10/10 00:48:29;;;;;;;27.63;16.88;;;;;;;6.70;100.00;101254.59;5055757;28;20090;-68
2021/10/10 00:50:56;;;;;;;27.05;16.75;;;;;;;6.70;100.00;101259.91;5054725;28;20055;-68
2021/10/10 00:53:25;;;;;;;23.58;16.13;;;;;;;6.62;99.99;101244.19;5055587;28;20064;-68
2021/10/10 00:55:55;;;;;;;23.83;15.80;;;;;;;6.61;100.00;101253.94;5055818;28;20059;-68
2021/10/10 00:58:24;;;;;;;24.60;15.38;;;;;;;6.58;100.00;101266.41;5054549;28;20426;-67
2021/10/10 01:00:52;;;;;;;28.50;16.50;;;;;;;6.56;100.00;101261.16;5052537;28;20334;-68
2021/10/10 01:03:20;;;;;;;22.25;16.15;;;;;;;6.55;100.00;101253.22;5036340;28;20121;-68
2021/10/10 01:05:48;;;;;;;22.75;14.85;;;;;;;6.55;100.00;101247.91;5055616;28;20043;-68
2021/10/10 01:08:17;;;;;;;25.73;15.35;;;;;;;6.54;100.00;101244.38;5055538;28;20095;-68
2021/10/10 01:10:45;;;;;;;23.65;15.23;;;;;;;6.44;100.00;101243.78;5055528;28;20426;-68
2021/10/10 01:13:19;;;;;;;21.00;14.60;;;;;;;6.43;100.00;101257.06;5054312;28;20041;-68
2021/10/10 01:15:48;;;;;;;23.15;15.90;;;;;;;6.35;100.00;101247.53;5055461;28;20052;-68
2021/10/10 01:18:23;;;;;;;24.02;14.90;;;;;;;6.36;100.00;101246.63;5054265;28;20365;-68
2021/10/10 01:20:55;;;;;;;23.85;14.90;;;;;;;6.34;99.92;101251.09;5055328;28;20132;-67
2021/10/10 01:23:23;;;;;;;20.30;14.60;;;;;;;6.41;99.90;101258.88;5054101;28;20055;-68
2021/10/10 01:25:51;;;;;;;21.33;13.93;;;;;;;6.34;100.00;101258.19;5055069;28;20048;-67
2021/10/10 01:28:19;;;;;;;19.08;12.75;;;;;;;6.33;100.00;101254.63;5053971;28;20106;-67
2021/10/10 01:30:46;;;;;;;21.88;14.07;;;;;;;6.31;100.00;101253.81;5055365;28;20450;-67
2021/10/10 01:33:14;;;;;;;20.45;13.15;;;;;;;6.36;99.94;101251.03;5055140;28;20095;-68
2021/10/10 01:35:41;;;;;;;21.58;13.07;;;;;;;6.34;100.00;101248.47;5053936;28;20331;-67
2021/10/10 01:38:14;;;;;;;19.55;13.57;;;;;;;6.30;100.00;101241.47;5053795;28;20081;-67
2021/10/10 01:40:44;;;;;;;18.73;12.77;;;;;;;6.30;100.00;101240.59;5053687;28;20044;-67
2021/10/10 01:43:12;;;;;;;22.98;12.38;;;;;;;6.21;100.00;101236.41;5054653;28;20063;-68
2021/10/10 01:45:39;;;;;;;19.30;11.30;;;;;;;6.26;100.00;101239.81;5053603;28;20072;-67
2021/10/10 01:48:06;;;;;;;20.85;12.50;;;;;;;6.20;100.00;101239.97;5053916;28;20037;-67
2021/10/10 01:50:33;;;;;;;20.75;11.25;;;;;;;6.21;100.00;101241.72;5036867;28;20053;-67
2021/10/10 01:53:00;;;;;;;17.40;10.55;;;;;;;6.24;100.00;101231.03;5033450;28;20065;-67
2021/10/10 01:55:28;;;;;;;16.15;10.52;;;;;;;6.22;99.96;101233.72;5034755;28;20405;-67
2021/10/10 01:57:55;;;;;;;17.10;11.15;;;;;;;6.21;100.00;101231.13;5033852;28;20101;-67
2021/10/10 02:00:23;;;;;;;19.10;11.68;;;;;;;6.22;100.00;101232.84;5033544;28;20439;-67
2021/10/10 02:02:50;;;;;;;19.00;11.43;;;;;;;6.21;100.00;101220.53;5053454;28;20525;-67
2021/10/10 02:05:17;;;;;;;18.13;10.20;;;;;;;6.20;100.00;101226.69;5053546;28;20111;-68
2021/10/10 02:07:44;;;;;;;15.32;10.43;;;;;;;6.22;100.00;101227.56;5054639;28;20099;-68
2021/10/10 02:10:11;;;;;;;15.68;10.35;;;;;;;6.09;100.00;101216.38;5054650;28;20047;-68
2021/10/10 02:12:38;;;;;;;18.90;10.73;;;;;;;6.13;100.00;101228.66;5054760;28;20041;-67
2021/10/10 02:15:07;;;;;;;12.88;9.27;;;;;;;6.15;100.00;101226.81;5054593;28;20049;-67
2021/10/10 02:17:34;;;;;;;12.65;9.48;;;;;;;6.01;100.00;101228.91;5053747;28;20041;-67
2021/10/10 02:20:02;;;;;;;15.10;9.80;;;;;;;6.06;100.00;101224.41;5053725;28;20377;-67
2021/10/10 02:22:29;;;;;;;14.02;10.05;;;;;;;6.00;100.00;101221.88;5053489;28;20099;-67
2021/10/10 02:24:55;;;;;;;14.43;10.40;;;;;;;5.99;100.00;101215.69;5054405;28;20094;-67
2021/10/10 02:27:22;;;;;;;15.52;9.60;;;;;;;6.01;100.00;101211.25;5020602;28;20063;-67
2021/10/10 02:29:49;;;;;;;16.65;9.52;;;;;;;6.05;100.00;101220.88;5036804;28;20040;-68
2021/10/10 02:32:16;;;;;;;16.63;9.55;;;;;;;6.00;100.00;101216.59;5054542;28;20041;-68
2021/10/10 02:34:43;;;;;;;12.40;8.98;;;;;;;5.93;100.00;101218.50;5054278;28;20045;-68
2021/10/10 02:37:10;;;;;;;15.07;8.85;;;;;;;5.88;100.00;101212.47;5054414;28;20033;-68
2021/10/10 02:39:37;;;;;;;15.38;9.23;;;;;;;5.89;100.00;101209.75;5054366;28;20066;-67
2021/10/10 02:42:06;;;;;;;17.50;10.05;;;;;;;5.90;100.00;101211.53;5054259;28;20041;-67
2021/10/10 02:44:35;;;;;;;18.95;9.68;;;;;;;5.93;100.00;101210.53;5054300;28;20044;-68
2021/10/10 02:47:02;;;;;;;16.05;9.23;;;;;;;5.85;100.00;101203.66;5053425;28;20049;-68
2021/10/10 02:49:29;;;;;;;13.10;8.80;;;;;;;5.89;100.00;101211.56;5054471;28;20048;-67
2021/10/10 02:51:56;;;;;;;17.05;9.43;;;;;;;5.90;100.00;101208.00;5053756;28;20057;-68
2021/10/10 02:54:22;;;;;;;13.05;8.90;;;;;;;5.88;100.00;101208.03;5057976;28;20056;-68
2021/10/10 02:56:49;;;;;;;16.15;9.52;;;;;;;5.92;100.00;101209.69;5056814;28;20095;-68
2021/10/10 02:59:16;;;;;;;18.63;10.88;;;;;;;5.89;100.00;101214.19;5056895;28;20049;-68
2021/10/10 03:01:43;;;;;;;15.77;8.82;;;;;;;5.89;100.00;101216.84;5046066;28;20061;-68
2021/10/10 03:04:14;;;;;;;15.13;9.13;;;;;;;5.89;100.00;101208.91;5037916;28;20091;-68
2021/10/10 03:06:41;;;;;;;18.45;10.60;;;;;;;5.86;100.00;101204.53;5038141;28;20328;-68
2021/10/10 03:09:08;;;;;;;18.50;9.82;;;;;;;5.89;100.00;101200.94;5037826;28;20038;-68
2021/10/10 03:11:34;;;;;;;18.17;10.85;;;;;;;5.80;100.00;101202.03;5037675;28;20056;-68
2021/10/10 03:14:01;;;;;;;17.83;11.60;;;;;;;5.85;100.00;101200.16;5036777;28;20458;-67
2021/10/10 03:16:29;;;;;;;21.60;11.07;;;;;;;5.81;100.00;101195.84;5037610;28;20111;-68
2021/10/10 03:18:56;;;;;;;19.30;11.30;;;;;;;5.82;100.00;101200.22;5037631;28;20064;-68
2021/10/10 03:21:23;;;;;;;28.27;15.02;;;;;;;5.84;100.00;101193.13;5036538;28;20119;-68
2021/10/10 03:23:50;;;;;;;20.42;13.13;;;;;;;5.83;100.00;101191.38;5039041;28;20046;-68
2021/10/10 03:26:16;;;;;;;19.98;12.45;;;;;;;5.81;100.00;101202.00;5057477;28;20045;-68
2021/10/10 03:28:43;;;;;;;22.65;13.88;;;;;;;5.87;100.00;101194.84;5057510;28;20037;-68
2021/10/10 03:31:10;;;;;;;23.25;14.65;;;;;;;5.85;100.00;101192.22;5056366;28;20045;-68
2021/10/10 03:33:37;;;;;;;27.65;14.93;;;;;;;5.84;100.00;101195.78;5057677;28;20045;-68
2021/10/10 03:36:04;;;;;;;24.70;15.32;;;;;;;5.82;100.00;101192.28;5056026;28;20423;-68
2021/10/10 03:38:30;;;;;;;30.77;17.95;;;;;;;5.80;100.00;101192.31;5057114;28;20048;-68
2021/10/10 03:40:57;;;;;;;30.75;18.17;;;;;;;5.79;100.00;101187.06;5057080;28;20103;-68
2021/10/10 03:43:25;;;;;;;35.70;19.08;;;;;;;5.79;100.00;101187.06;5057068;28;20044;-68
2021/10/10 03:45:52;;;;;;;35.20;19.10;;;;;;;5.82;100.00;101185.22;5055974;28;20052;-68
2021/10/10 03:48:18;;;;;;;41.55;21.08;;;;;;;5.85;100.00;101181.63;5057158;28;20350;-68
2021/10/10 03:50:45;;;;;;;36.70;19.63;;;;;;;5.89;100.00;101182.41;5055932;28;20127;-68
2021/10/10 03:53:12;;;;;;;31.75;18.35;;;;;;;5.89;100.00;101177.97;5056828;28;20400;-68
2021/10/10 03:55:39;;;;;;;32.55;18.92;;;;;;;5.96;100.00;101184.00;5039240;28;20268;-68
2021/10/10 03:58:08;;;;;;;31.95;16.27;;;;;;;5.94;100.00;101178.72;5056720;28;20048;-67
2021/10/10 04:00:38;;;;;;;28.45;16.98;;;;;;;6.00;100.00;101183.00;5054535;28;20052;-68
2021/10/10 04:03:06;;;;;;;31.27;17.73;;;;;;;5.98;100.00;101182.16;5036851;28;20124;-67
2021/10/10 04:08:01;;;;;;;32.83;18.17;;;;;;;5.83;100.00;101184.28;5036771;28;20042;-68
2021/10/10 04:10:28;;;;;;;30.23;17.77;;;;;;;5.81;100.00;101183.47;5035656;28;20056;-68
2021/10/10 04:12:56;;;;;;;30.20;17.75;;;;;;;5.63;100.00;101179.50;5019168;28;20451;-68
2021/10/10 04:15:23;;;;;;;25.92;15.82;;;;;;;5.67;100.00;101183.78;5035500;28;20056;-68
2021/10/10 04:17:50;;;;;;;29.52;16.38;;;;;;;5.63;100.00;101178.59;5036319;28;20046;-67
2021/10/10 04:20:18;;;;;;;29.67;16.38;;;;;;;5.69;100.00;101189.94;5036527;28;20109;-67
2021/10/10 04:22:46;;;;;;;29.58;17.27;;;;;;;5.66;100.00;101182.06;5036393;28;20042;-68
2021/10/10 04:25:13;;;;;;;23.95;14.82;;;;;;;5.67;100.00;101186.44;5049245;28;20049;-68
2021/10/10 04:27:40;;;;;;;22.17;15.13;;;;;;;5.80;100.00;101183.50;5056298;28;20045;-68
2021/10/10 04:30:13;;;;;;;27.38;16.48;;;;;;;5.66;100.00;101175.91;5056312;28;20051;-68
2021/10/10 04:32:43;;;;;;;27.40;14.90;;;;;;;5.64;100.00;101175.94;5056219;28;20123;-68
2021/10/10 04:35:11;;;;;;;27.58;15.73;;;;;;;5.62;100.00;101184.81;5055029;28;20052;-67
2021/10/10 04:37:39;;;;;;;25.63;15.38;;;;;;;5.56;100.00;101184.06;5054924;28;20141;-68
2021/10/10 04:40:07;;;;;;;23.73;14.68;;;;;;;5.52;100.00;101182.41;5056052;28;20123;-67
2021/10/10 04:42:35;;;;;;;25.77;15.02;;;;;;;5.44;100.00;101171.09;5055865;28;20091;-67
2021/10/10 04:45:04;;;;;;;23.73;14.80;;;;;;;5.57;100.00;101185.78;5056085;28;20041;-68
2021/10/10 04:47:30;;;;;;;22.55;13.60;;;;;;;5.46;100.00;101181.66;5055922;28;20127;-67
2021/10/10 04:49:58;;;;;;;23.42;14.40;;;;;;;5.46;100.00;101177.25;5054697;28;20053;-68
2021/10/10 04:52:26;;;;;;;20.88;13.52;;;;;;;5.43;100.00;101185.25;5056078;28;20051;-67
2021/10/10 04:54:52;;;;;;;24.20;13.93;;;;;;;5.39;100.00;101183.59;5055809;28;20079;-68
2021/10/10 04:57:19;;;;;;;21.67;13.70;;;;;;;5.41;100.00;101190.56;5055709;28;20118;-67
2021/10/10 04:59:49;;;;;;;18.63;13.05;;;;;;;5.41;100.00;101176.47;5054779;28;20102;-67
2021/10/10 05:02:18;;;;;;;20.97;12.93;;;;;;;5.45;100.00;101180.78;5050111;28;20052;-67
2021/10/10 05:04:45;;;;;;;17.38;12.75;;;;;;;5.35;100.00;101181.91;5043346;28;20347;-67
2021/10/10 05:07:12;;;;;;;23.70;12.70;;;;;;;5.29;100.00;101178.47;5054268;28;20051;-66
2021/10/10 05:09:39;;;;;;;22.10;13.13;;;;;;;5.29;100.00;101181.13;5042496;28;20048;-67
2021/10/10 05:12:06;;;;;;;19.60;13.80;;;;;;;5.34;100.00;101186.31;5055414;28;20116;-67
2021/10/10 05:14:33;;;;;;;22.75;13.45;;;;;;;5.29;100.00;101183.78;5051635;28;20052;-67
2021/10/10 05:17:00;;;;;;;29.35;13.15;;;;;;;5.36;100.00;101186.28;5035321;28;20124;-68
2021/10/10 05:19:27;;;;;;;19.67;13.02;;;;;;;5.34;100.00;101180.16;5049907;28;20112;-67
2021/10/10 05:21:53;;;;;;;20.35;12.55;;;;;;;5.38;100.00;101181.81;5055342;28;20041;-67
2021/10/10 05:24:20;;;;;;;18.83;12.73;;;;;;;5.35;100.00;101177.50;5054226;28;20221;-67
2021/10/10 05:26:47;;;;;;;19.10;13.30;;;;;;;5.41;100.00;101187.06;5055184;28;20123;-67
2021/10/10 05:29:14;;;;;;;21.90;12.38;;;;;;;5.40;100.00;101180.88;5055162;28;20049;-68
2021/10/10 05:31:41;;;;;;;25.40;12.60;;;;;;;5.47;100.00;101186.03;5054282;28;20040;-68
2021/10/10 05:34:08;;;;;;;17.42;11.93;;;;;;;5.57;100.00;101188.44;5054555;28;20052;-67
2021/10/10 05:36:35;;;;;;;20.65;12.07;;;;;;;5.58;100.00;101190.16;5055067;28;20094;-69
2021/10/10 05:39:03;;;;;;;18.85;12.02;;;;;;;5.55;100.00;101195.56;5054776;28;20045;-67
2021/10/10 05:41:29;;;;;;;20.15;12.20;;;;;;;5.55;100.00;101194.66;5054938;28;20431;-67
2021/10/10 05:43:56;;;;;;;18.58;12.05;;;;;;;5.50;100.00;101175.41;5054853;28;20407;-67
2021/10/10 05:46:23;;;;;;;19.08;11.80;;;;;;;5.60;100.00;101194.59;5053785;28;20052;-67
2021/10/10 05:48:50;;;;;;;19.75;11.80;;;;;;;5.54;100.00;101193.81;5054896;28;20065;-66
2021/10/10 05:51:17;;;;;;;24.35;12.13;;;;;;;5.60;100.00;101197.25;5053233;28;20048;-68
2021/10/10 05:53:43;;;;;;;18.63;12.73;;;;;;;5.60;100.00;101199.88;5053153;28;20095;-67
2021/10/10 05:56:11;;;;;;;16.98;10.90;;;;;;;5.66;100.00;101199.75;5054868;28;20376;-67
2021/10/10 05:58:43;;;;;;;20.23;11.30;;;;;;;5.62;100.00;101193.63;5054706;28;20099;-67
2021/10/10 06:01:22;;;;;;;17.58;11.48;;;;;;;5.54;100.00;101199.13;5054240;28;20049;-67
2021/10/10 06:03:49;;;;;;;19.33;11.35;;;;;;;5.52;100.00;101197.41;5037247;28;20049;-68
2021/10/10 06:06:16;;;;;;;18.27;11.55;;;;;;;5.56;100.00;101197.28;5048414;28;20049;-67
2021/10/10 06:08:42;;;;;;;17.10;10.75;;;;;;;5.56;100.00;101192.00;5047891;28;20100;-67
2021/10/10 06:11:10;;;;;;;16.95;11.13;;;;;;;5.51;100.00;101195.66;5049167;28;20045;-67
2021/10/10 06:13:44;;;;;;;19.15;11.38;;;;;;;5.54;100.00;101192.94;5041660;28;20045;-66
2021/10/10 06:16:11;;;;;;;15.40;11.30;;;;;;;5.54;100.00;101196.47;5053707;28;20072;-67
2021/10/10 06:18:38;;;;;;;18.00;11.48;;;;;;;5.53;100.00;101186.78;5054574;28;20069;-66
2021/10/10 06:21:05;;;;;;;18.63;10.93;;;;;;;5.65;100.00;101196.22;5054761;28;20045;-67
2021/10/10 06:23:32;;;;;;;18.83;11.82;;;;;;;5.67;100.00;101201.47;5054442;28;20107;-67
2021/10/10 06:25:58;;;;;;;21.48;12.02;;;;;;;5.68;100.00;101203.22;5054527;28;20044;-67
2021/10/10 06:28:25;;;;;;;20.65;12.30;;;;;;;5.65;100.00;101197.97;5056684;28;20036;-67
2021/10/10 06:30:53;;;;;;;20.48;12.32;;;;;;;5.64;100.00;101206.84;5057920;28;20049;-67
2021/10/10 06:33:20;;;;;;;20.45;12.38;;;;;;;5.62;100.00;101206.00;5057962;28;20044;-67
2021/10/10 06:35:47;;;;;;;17.90;12.02;;;;;;;5.63;100.00;101203.34;5056932;28;20045;-67
2021/10/10 06:38:14;;;;;;;20.08;12.52;;;;;;;5.65;100.00;101205.91;5058265;28;20048;-67
2021/10/10 06:40:41;;;;;;;21.13;11.50;;;;;;;5.70;100.00;101204.03;5058217;28;20645;-69
2021/10/10 06:43:07;;;;;;;16.02;11.10;;;;;;;5.73;100.00;101188.09;5058045;28;20041;-68
2021/10/10 06:45:34;;;;;;;25.45;12.77;;;;;;;5.75;100.00;101201.28;5058304;28;20056;-68
2021/10/10 06:48:01;;;;;;;16.25;10.95;;;;;;;5.79;100.00;101193.25;5058243;28;20048;-68
2021/10/10 06:50:28;;;;;;;22.35;11.98;;;;;;;5.79;100.00;101202.97;5058198;28;20095;-68
2021/10/10 06:52:55;;;;;;;19.88;12.77;;;;;;;5.82;100.00;101208.16;5056790;28;20094;-68
2021/10/10 06:55:22;;;;;;;19.63;12.57;;;;;;;5.90;100.00;101211.53;5058046;28;20053;-68
2021/10/10 06:57:49;;;;;;;19.05;12.15;;;;;;;5.96;100.00;101210.50;5058013;28;20052;-68
2021/10/10 07:00:16;;;;;;;20.25;11.50;;;;;;;5.95;100.00;101199.00;5057972;28;20044;-67
2021/10/10 07:02:43;;;;;;;18.73;12.60;;;;;;;6.01;100.00;101210.38;5057896;28;20053;-67
2021/10/10 07:05:10;;;;;;;17.50;11.48;;;;;;;6.09;100.00;101214.59;5057830;28;20107;-67
2021/10/10 07:07:37;;;;;;;23.52;11.95;;;;;;;6.13;100.00;101217.16;5057664;28;20098;-67
2021/10/10 07:10:06;;;;;;;19.40;12.27;;;;;;;6.19;100.00;101223.19;5057764;28;20045;-68
2021/10/10 07:12:34;;;;;;;20.67;12.00;;;;;;;6.19;100.00;101217.00;5053024;28;20052;-68
2021/10/10 07:15:02;;;;;;;16.23;11.85;;;;;;;6.23;100.00;101214.25;5020184;28;20507;-68
2021/10/10 07:17:32;;;;;;;18.90;12.65;;;;;;;6.34;100.00;101218.41;5037733;28;20037;-67
2021/10/10 07:20:26;;;;;;;21.23;12.38;;;;;;;6.35;100.00;101212.19;5020071;28;20053;-67
2021/10/10 07:22:58;;;;;;;18.88;11.90;;;;;;;6.39;100.00;101214.72;5037629;28;20435;-68
2021/10/10 07:25:25;;;;;;;15.40;11.40;;;;;;;6.41;100.00;101209.38;5052024;28;20041;-68
2021/10/10 07:27:52;;;;;;;18.42;12.40;;;;;;;6.41;100.00;101205.84;5057341;28;20052;-67
2021/10/10 07:30:18;;;;;;;16.10;11.68;;;;;;;6.49;100.00;101203.88;5057128;28;20045;-68
2021/10/10 07:32:45;;;;;;;21.55;12.52;;;;;;;6.53;100.00;101205.50;5056108;28;20051;-67
2021/10/10 07:35:12;;;;;;;21.58;12.63;;;;;;;6.59;100.00;101221.25;5057099;28;20060;-67
2021/10/10 07:37:39;;;;;;;19.67;12.48;;;;;;;6.61;100.00;101221.22;5056918;28;20044;-66
2021/10/10 07:40:07;;;;;;;20.42;13.02;;;;;;;6.63;100.00;101222.94;5039362;28;20073;-68
2021/10/10 07:42:34;;;;;;;19.77;13.30;;;;;;;6.70;100.00;101228.06;5055976;28;20045;-66
2021/10/10 07:45:12;;;;;;;22.15;15.07;;;;;;;6.76;100.00;101222.59;5056895;28;20091;-67
2021/10/10 07:50:10;;;;;;;18.45;12.95;;;;;;;6.90;100.00;101236.34;5057006;28;20051;-68
2021/10/10 07:52:37;;;;;;;22.40;13.73;;;;;;;7.00;100.00;101238.72;5055711;28;20434;-67
2021/10/10 07:55:05;;;;;;;23.35;14.48;;;;;;;7.07;100.00;101234.97;5057183;28;20400;-67
2021/10/10 07:57:32;;;;;;;19.83;13.18;;;;;;;7.14;100.00;101233.88;5055760;28;20049;-67
2021/10/10 08:00:00;;;;;;;19.77;12.10;;;;;;;7.22;100.00;101228.34;5056722;28;20426;-67
2021/10/10 08:02:48;;;;;;;17.27;11.95;;;;;;;7.34;100.00;101224.44;5056838;28;20048;-67
2021/10/10 08:05:16;;;;;;;18.45;13.02;;;;;;;7.41;100.00;101220.69;5056774;28;20178;-68
2021/10/10 08:07:43;;;;;;;18.75;12.40;;;;;;;7.46;100.00;101210.78;5055693;28;20182;-68
2021/10/10 08:10:10;;;;;;;22.63;12.73;;;;;;;7.56;100.00;101224.66;5056585;28;20438;-67
2021/10/10 08:12:37;;;;;;;16.10;11.05;;;;;;;7.68;100.00;101225.22;5052628;28;20323;-67
2021/10/10 08:15:04;;;;;;;17.50;10.63;;;;;;;7.92;100.00;101222.66;5036518;28;20048;-67
2021/10/10 08:17:31;;;;;;;16.10;10.63;;;;;;;8.00;100.00;101208.19;5036575;28;20319;-68
2021/10/10 08:19:58;;;;;;;19.63;10.02;;;;;;;8.15;100.00;101209.47;5036441;28;20088;-67
2021/10/10 08:22:25;;;;;;;14.73;10.25;;;;;;;8.25;100.00;101207.38;5035752;28;20045;-67
2021/10/10 08:24:52;;;;;;;15.38;10.23;;;;;;;8.34;100.00;101210.63;5048715;28;20159;-67
2021/10/10 08:27:18;;;;;;;20.10;10.20;;;;;;;8.43;100.00;101199.66;5058112;28;20500;-68
2021/10/10 08:29:45;;;;;;;15.43;10.27;;;;;;;8.54;100.00;101196.66;5056397;28;20075;-67
2021/10/10 08:32:12;;;;;;;16.10;10.45;;;;;;;8.74;100.00;101203.03;5056219;28;20048;-67
2021/10/10 08:34:39;;;;;;;16.33;9.70;;;;;;;8.83;100.00;101203.56;5056232;28;20131;-68
2021/10/10 08:37:05;;;;;;;15.90;9.23;;;;;;;9.03;98.45;101203.75;5056196;28;20043;-68
2021/10/10 08:39:32;;;;;;;13.95;9.68;;;;;;;9.27;97.63;101214.41;5056174;28;20325;-67
2021/10/10 08:42:02;;;;;;;18.08;9.40;;;;;;;9.35;98.31;101210.53;5055666;28;20041;-68
2021/10/10 08:44:36;;;;;;;16.23;9.07;;;;;;;9.51;97.41;101212.56;5038994;28;20049;-67
2021/10/10 08:47:07;;;;;;;12.02;8.65;;;;;;;9.63;97.66;101206.75;5056190;28;20049;-68
2021/10/10 08:49:37;;;;;;;10.88;8.65;;;;;;;9.77;97.86;101192.84;5046813;28;20095;-68
2021/10/10 08:52:05;;;;;;;14.52;9.82;;;;;;;9.95;96.14;101200.16;5037919;28;20049;-69
2021/10/10 08:54:49;;;;;;;13.75;9.18;;;;;;;10.19;93.49;101183.13;5054197;28;20036;-69
2021/10/10 08:57:17;;;;;;;16.85;8.70;;;;;;;10.33;91.22;101181.66;5055307;28;20434;-69
2021/10/10 08:59:49;;;;;;;14.75;8.85;;;;;;;10.50;90.42;101188.09;5055123;28;20212;-69
2021/10/10 09:02:25;;;;;;;13.40;8.82;;;;;;;10.67;88.93;101190.03;5051867;28;20041;-68
2021/10/10 09:04:52;;;;;;;16.05;7.60;;;;;;;10.79;90.11;101196.59;5054945;28;20041;-68
2021/10/10 09:07:20;;;;;;;16.25;7.25;;;;;;;10.88;84.54;101193.50;5055011;28;20052;-68
2021/10/10 09:09:46;;;;;;;14.70;7.20;;;;;;;11.08;82.72;101205.06;5054932;28;20426;-67
2021/10/10 09:12:14;;;;;;;12.63;7.63;;;;;;;11.19;82.05;101213.47;5054733;28;20049;-70
2021/10/10 09:14:50;;;;;;;15.70;8.05;;;;;;;11.31;82.22;101214.69;5053317;28;20045;-70
2021/10/10 09:17:19;;;;;;;14.75;7.47;;;;;;;11.54;80.03;101218.06;5053706;28;20041;-67
2021/10/10 09:19:59;;;;;;;16.27;8.35;;;;;;;11.76;79.99;101219.72;5054778;28;20044;-67
2021/10/10 09:22:27;;;;;;;11.38;7.88;;;;;;;11.80;77.24;101219.47;5054612;28;20427;-67
2021/10/10 09:25:07;;;;;;;11.15;7.15;;;;;;;11.93;73.46;101202.84;5054664;28;20049;-73
2021/10/10 09:27:34;;;;;;;13.23;7.28;;;;;;;12.01;74.44;101219.34;5054368;28;20114;-76
2021/10/10 09:30:04;;;;;;;12.40;7.57;;;;;;;12.04;74.15;101221.91;5053025;28;20347;-70
2021/10/10 09:32:32;;;;;;;;;;;;;;;12.13;73.46;101222.38;5052922;28;20037;-70
2021/10/10 09:34:59;;;;;;;11.88;6.95;;;;;;;12.18;73.65;101223.88;5050679;28;19924;-70
2021/10/10 09:37:48;;;;;;;15.57;7.88;;;;;;;12.26;74.68;101218.13;5053454;28;20095;-72
2021/10/10 09:40:28;;;;;;;14.68;8.00;;;;;;;12.34;73.24;101228.44;5051764;28;20033;-70
2021/10/10 09:43:02;;;;;;;13.35;7.68;;;;;;;12.43;74.16;101221.75;5049348;28;20139;-70
2021/10/10 09:45:30;;;;;;;13.75;8.45;;;;;;;12.42;77.27;101230.75;5044975;28;20040;-67
2021/10/10 09:48:02;;;;;;;14.55;8.45;;;;;;;12.38;74.63;101221.13;5049692;28;20143;-72
2021/10/10 09:50:33;;;;;;;12.65;7.80;;;;;;;12.41;74.01;101229.00;5052088;28;20377;-73
2021/10/10 09:53:01;;;;;;;19.52;8.02;;;;;;;12.40;74.94;101227.25;5051981;28;20045;-73
2021/10/10 09:55:30;;;;;;;12.95;7.88;;;;;;;12.40;74.81;101230.81;5045444;28;20121;-70
2021/10/10 09:57:57;;;;;;;16.70;7.60;;;;;;;12.45;71.97;101231.44;5042851;28;20358;-69
2021/10/10 10:00:35;;;;;;;13.00;7.78;;;;;;;12.52;71.87;101233.81;5051857;28;20036;-71
2021/10/10 10:03:11;;;;;;;15.25;8.07;;;;;;;12.60;71.60;101239.63;5052977;28;20041;-70
2021/10/10 10:05:38;;;;;;;14.40;8.50;;;;;;;12.60;74.04;101244.97;5048881;28;20053;-70
2021/10/10 10:08:05;;;;;;;13.32;9.43;;;;;;;12.57;74.33;101235.28;5052087;28;20099;-68
2021/10/10 10:10:34;;;;;;;14.73;8.43;;;;;;;12.74;71.71;101238.88;5050031;28;20051;-67
2021/10/10 10:13:02;;;;;;;14.07;9.00;;;;;;;12.86;74.14;101240.91;5047983;28;20094;-70
2021/10/10 10:15:32;;;;;;;17.17;10.32;;;;;;;13.06;73.34;101249.69;5047246;28;20045;-76
2021/10/10 10:17:59;;;;;;;18.67;10.60;;;;;;;13.20;74.36;101237.38;5050408;28;20037;-70
2021/10/10 10:20:29;;;;;;;18.92;10.38;;;;;;;13.24;74.04;101230.91;5050954;28;20037;-77
2021/10/10 10:22:57;;;;;;;19.05;9.98;;;;;;;13.29;75.09;101231.50;5050531;28;20099;-75
2021/10/10 10:25:25;;;;;;;17.15;10.90;;;;;;;13.59;75.02;101244.19;5051227;28;20047;-76
2021/10/10 10:27:53;;;;;;;23.02;11.68;;;;;;;13.60;72.95;101235.16;5050013;28;20053;-73
2021/10/10 10:30:23;;;;;;;18.98;11.75;;;;;;;13.64;73.32;101236.75;5052549;28;20397;-73
2021/10/10 10:32:53;;;;;;;25.02;12.32;;;;;;;13.75;74.64;101237.94;5039684;28;20643;-75
2021/10/10 10:35:20;;;;;;;19.40;11.85;;;;;;;13.98;72.92;101224.06;5054106;28;20041;-77
2021/10/10 10:37:49;;;;;;;20.52;11.38;;;;;;;14.22;70.54;101215.50;5048456;28;20049;-77
2021/10/10 10:40:16;;;;;;;20.65;11.38;;;;;;;14.34;70.89;101223.78;5053544;28;20489;-69
2021/10/10 10:42:48;;;;;;;17.42;11.90;;;;;;;14.53;70.74;101221.72;5051095;28;20041;-72
2021/10/10 10:45:24;;;;;;;18.85;11.10;;;;;;;14.79;69.28;101215.72;5053904;28;20069;-73
2021/10/10 10:47:53;;;;;;;21.25;11.82;;;;;;;14.93;67.90;101220.25;5050418;28;20049;-70
2021/10/10 10:50:29;;;;;;;20.33;11.85;;;;;;;15.11;68.21;101225.41;5050806;28;20087;-70
2021/10/10 10:53:09;;;;;;;21.48;12.10;;;;;;;15.30;67.37;101223.28;5052050;28;20136;-72
2021/10/10 10:55:42;;;;;;;21.33;11.05;;;;;;;15.33;67.32;101200.72;5035097;28;20060;-72
2021/10/10 10:58:13;;;;;;;22.75;12.85;;;;;;;15.25;65.75;101209.25;5052570;28;20049;-71
2021/10/10 11:00:41;;;;;;;20.17;12.45;;;;;;;15.19;66.10;101193.53;5041953;28;20104;-73
2021/10/10 11:03:09;;;;;;;25.67;14.00;;;;;;;15.11;66.15;101206.59;5047989;28;20377;-75
2021/10/10 11:05:49;;;;;;;20.98;13.35;;;;;;;15.10;66.51;101211.13;5043040;28;20049;-73
2021/10/10 11:08:19;;;;;;;19.80;13.20;;;;;;;14.99;66.96;101205.56;5049234;28;20328;-71
2021/10/10 11:11:03;;;;;;;22.73;13.48;;;;;;;15.00;67.32;101205.47;5047347;28;20041;-71
2021/10/10 11:13:39;;;;;;;26.15;14.07;;;;;;;15.04;66.56;101201.59;5052026;28;20052;-71
2021/10/10 11:16:11;;;;;;;22.75;14.43;;;;;;;15.00;67.31;101194.72;5050401;28;20045;-76
2021/10/10 11:18:42;;;;;;;23.75;15.18;;;;;;;14.78;67.08;101169.16;5045249;28;20036;-76
2021/10/10 11:21:10;;;;;;;24.13;14.30;;;;;;;14.61;67.85;101183.63;5053484;28;20033;-73
2021/10/10 11:23:38;;;;;;;29.17;14.80;;;;;;;14.59;68.27;101182.00;5054449;28;20044;-75